sensor_id;sensor_type;location;lat;lon;timestamp;P1;durP1;ratioP1;P2;durP2;ratioP2
16480;SDS011;44634;54.110;12.138;2022-07-23T00:00:51;3.17;;;2.00;;
16480;SDS011;44634;54.110;12.138;2022-07-23T00:03:19;2.83;;;2.50;;
16480;SDS011;44634;54.110;12.138;2022-07-23T00:05:47;3.33;;;2.20;;
16480;SDS011;44634;54.110;12.138;2022-07-23T00:08:15;2.33;;;2.20;;
16480;SDS011;44634;54.110;12.138;2022-07-23T00:10:43;2.37;;;2.17;;
16480;SDS011;44634;54.110;12.138;2022-07-23T00:13:11;2.37;;;1.97;;
16480;SDS011;44634;54.110;12.138;2022-07-23T00:15:38;3.40;;;2.10;;
16480;SDS011;44634;54.110;12.138;2022-07-23T00:18:08;4.00;;;2.20;;
16480;SDS011;44634;54.110;12.138;2022-07-23T00:20:35;2.33;;;2.13;;
16480;SDS011;44634;54.110;12.138;2022-07-23T00:23:03;2.77;;;2.20;;
16480;SDS011;44634;54.110;12.138;2022-07-23T00:25:31;2.70;;;2.30;;
16480;SDS011;44634;54.110;12.138;2022-07-23T00:27:59;4.23;;;2.43;;
16480;SDS011;44634;54.110;12.138;2022-07-23T00:30:29;2.57;;;2.10;;
16480;SDS011;44634;54.110;12.138;2022-07-23T00:32:59;5.90;;;2.33;;
16480;SDS011;44634;54.110;12.138;2022-07-23T00:35:31;2.10;;;2.00;;
16480;SDS011;44634;54.110;12.138;2022-07-23T00:38:01;2.17;;;2.07;;
16480;SDS011;44634;54.110;12.138;2022-07-23T00:40:30;3.23;;;2.17;;
16480;SDS011;44634;54.110;12.138;2022-07-23T00:42:59;4.63;;;2.30;;
16480;SDS011;44634;54.110;12.138;2022-07-23T00:45:27;2.47;;;2.27;;
16480;SDS011;44634;54.110;12.138;2022-07-23T00:47:56;2.33;;;2.10;;
16480;SDS011;44634;54.110;12.138;2022-07-23T00:50:24;4.67;;;2.40;;
16480;SDS011;44634;54.110;12.138;2022-07-23T00:52:53;2.30;;;2.00;;
16480;SDS011;44634;54.110;12.138;2022-07-23T00:55:21;1.90;;;1.80;;
16480;SDS011;44634;54.110;12.138;2022-07-23T00:57:49;2.63;;;2.00;;
16480;SDS011;44634;54.110;12.138;2022-07-23T01:00:18;3.20;;;1.83;;
16480;SDS011;44634;54.110;12.138;2022-07-23T01:02:46;1.80;;;1.80;;
16480;SDS011;44634;54.110;12.138;2022-07-23T01:05:14;2.30;;;2.10;;
16480;SDS011;44634;54.110;12.138;2022-07-23T01:07:42;2.13;;;1.93;;
16480;SDS011;44634;54.110;12.138;2022-07-23T01:10:13;2.40;;;1.80;;
16480;SDS011;44634;54.110;12.138;2022-07-23T01:12:59;2.67;;;2.07;;
16480;SDS011;44634;54.110;12.138;2022-07-23T01:15:28;2.03;;;1.87;;
16480;SDS011;44634;54.110;12.138;2022-07-23T01:17:56;2.37;;;2.27;;
16480;SDS011;44634;54.110;12.138;2022-07-23T01:20:24;2.23;;;2.10;;
16480;SDS011;44634;54.110;12.138;2022-07-23T01:22:54;2.33;;;2.10;;
16480;SDS011;44634;54.110;12.138;2022-07-23T01:25:22;3.70;;;2.10;;
16480;SDS011;44634;54.110;12.138;2022-07-23T01:27:50;2.30;;;2.10;;
16480;SDS011;44634;54.110;12.138;2022-07-23T01:30:19;2.27;;;2.07;;
16480;SDS011;44634;54.110;12.138;2022-07-23T01:32:47;2.47;;;2.20;;
16480;SDS011;44634;54.110;12.138;2022-07-23T01:35:15;3.43;;;1.93;;
16480;SDS011;44634;54.110;12.138;2022-07-23T01:37:43;3.50;;;2.07;;
16480;SDS011;44634;54.110;12.138;2022-07-23T01:40:12;1.90;;;1.80;;
16480;SDS011;44634;54.110;12.138;2022-07-23T01:42:40;2.03;;;1.83;;
16480;SDS011;44634;54.110;12.138;2022-07-23T01:45:08;2.90;;;2.30;;
16480;SDS011;44634;54.110;12.138;2022-07-23T01:47:36;2.63;;;1.60;;
16480;SDS011;44634;54.110;12.138;2022-07-23T01:50:05;2.10;;;1.90;;
16480;SDS011;44634;54.110;12.138;2022-07-23T01:52:33;1.83;;;1.70;;
16480;SDS011;44634;54.110;12.138;2022-07-23T01:55:01;1.70;;;1.70;;
16480;SDS011;44634;54.110;12.138;2022-07-23T01:57:31;3.73;;;1.80;;
16480;SDS011;44634;54.110;12.138;2022-07-23T01:59:58;2.03;;;1.80;;
16480;SDS011;44634;54.110;12.138;2022-07-23T02:02:26;2.37;;;1.90;;
16480;SDS011;44634;54.110;12.138;2022-07-23T02:04:54;2.10;;;2.00;;
16480;SDS011;44634;54.110;12.138;2022-07-23T02:07:22;3.13;;;2.07;;
16480;SDS011;44634;54.110;12.138;2022-07-23T02:09:50;6.00;;;2.73;;
16480;SDS011;44634;54.110;12.138;2022-07-23T02:12:17;3.33;;;1.90;;
16480;SDS011;44634;54.110;12.138;2022-07-23T02:14:47;3.90;;;2.37;;
16480;SDS011;44634;54.110;12.138;2022-07-23T02:17:15;1.90;;;1.80;;
16480;SDS011;44634;54.110;12.138;2022-07-23T02:19:42;4.17;;;2.37;;
16480;SDS011;44634;54.110;12.138;2022-07-23T02:22:10;4.27;;;2.20;;
16480;SDS011;44634;54.110;12.138;2022-07-23T02:24:38;3.33;;;2.20;;
16480;SDS011;44634;54.110;12.138;2022-07-23T02:27:06;2.47;;;2.27;;
16480;SDS011;44634;54.110;12.138;2022-07-23T02:29:34;5.13;;;2.10;;
16480;SDS011;44634;54.110;12.138;2022-07-23T02:32:03;5.60;;;2.23;;
16480;SDS011;44634;54.110;12.138;2022-07-23T02:34:33;4.00;;;2.30;;
16480;SDS011;44634;54.110;12.138;2022-07-23T02:37:01;7.40;;;2.93;;
16480;SDS011;44634;54.110;12.138;2022-07-23T02:39:28;5.27;;;2.50;;
16480;SDS011;44634;54.110;12.138;2022-07-23T02:41:56;4.87;;;2.20;;
16480;SDS011;44634;54.110;12.138;2022-07-23T02:44:24;2.63;;;2.10;;
16480;SDS011;44634;54.110;12.138;2022-07-23T02:46:52;4.80;;;2.53;;
16480;SDS011;44634;54.110;12.138;2022-07-23T02:49:21;3.50;;;2.27;;
16480;SDS011;44634;54.110;12.138;2022-07-23T02:51:49;2.47;;;2.23;;
16480;SDS011;44634;54.110;12.138;2022-07-23T02:54:17;4.23;;;2.57;;
16480;SDS011;44634;54.110;12.138;2022-07-23T02:56:45;2.83;;;2.57;;
16480;SDS011;44634;54.110;12.138;2022-07-23T02:59:14;7.17;;;2.80;;
16480;SDS011;44634;54.110;12.138;2022-07-23T03:01:42;3.13;;;2.70;;
16480;SDS011;44634;54.110;12.138;2022-07-23T03:04:10;2.70;;;2.50;;
16480;SDS011;44634;54.110;12.138;2022-07-23T03:06:39;3.47;;;2.50;;
16480;SDS011;44634;54.110;12.138;2022-07-23T03:09:07;2.43;;;2.23;;
16480;SDS011;44634;54.110;12.138;2022-07-23T03:11:35;4.97;;;3.13;;
16480;SDS011;44634;54.110;12.138;2022-07-23T03:14:03;3.07;;;2.73;;
16480;SDS011;44634;54.110;12.138;2022-07-23T03:16:30;2.87;;;2.67;;
16480;SDS011;44634;54.110;12.138;2022-07-23T03:18:58;3.17;;;2.87;;
16480;SDS011;44634;54.110;12.138;2022-07-23T03:21:31;3.70;;;2.63;;
16480;SDS011;44634;54.110;12.138;2022-07-23T03:24:01;3.07;;;2.43;;
16480;SDS011;44634;54.110;12.138;2022-07-23T03:26:29;4.80;;;2.60;;
16480;SDS011;44634;54.110;12.138;2022-07-23T03:28:57;4.23;;;2.80;;
16480;SDS011;44634;54.110;12.138;2022-07-23T03:31:25;3.33;;;3.03;;
16480;SDS011;44634;54.110;12.138;2022-07-23T03:33:53;2.77;;;2.67;;
16480;SDS011;44634;54.110;12.138;2022-07-23T03:36:21;2.83;;;2.73;;
16480;SDS011;44634;54.110;12.138;2022-07-23T03:38:50;5.47;;;2.70;;
16480;SDS011;44634;54.110;12.138;2022-07-23T03:41:19;4.37;;;2.70;;
16480;SDS011;44634;54.110;12.138;2022-07-23T03:43:47;5.33;;;2.70;;
16480;SDS011;44634;54.110;12.138;2022-07-23T03:46:15;3.73;;;2.83;;
16480;SDS011;44634;54.110;12.138;2022-07-23T03:48:43;3.03;;;2.83;;
16480;SDS011;44634;54.110;12.138;2022-07-23T03:51:11;3.23;;;2.80;;
16480;SDS011;44634;54.110;12.138;2022-07-23T03:53:39;2.87;;;2.67;;
16480;SDS011;44634;54.110;12.138;2022-07-23T03:56:07;5.70;;;2.70;;
16480;SDS011;44634;54.110;12.138;2022-07-23T03:58:36;4.67;;;2.60;;
16480;SDS011;44634;54.110;12.138;2022-07-23T04:01:04;4.63;;;2.77;;
16480;SDS011;44634;54.110;12.138;2022-07-23T04:03:32;3.13;;;2.60;;
16480;SDS011;44634;54.110;12.138;2022-07-23T04:06:00;4.43;;;2.70;;
16480;SDS011;44634;54.110;12.138;2022-07-23T04:08:28;3.20;;;2.50;;
16480;SDS011;44634;54.110;12.138;2022-07-23T04:10:55;2.70;;;2.40;;
16480;SDS011;44634;54.110;12.138;2022-07-23T04:13:23;3.10;;;2.50;;
16480;SDS011;44634;54.110;12.138;2022-07-23T04:15:53;3.03;;;2.60;;
16480;SDS011;44634;54.110;12.138;2022-07-23T04:18:20;2.80;;;2.50;;
16480;SDS011;44634;54.110;12.138;2022-07-23T04:20:50;2.80;;;2.13;;
16480;SDS011;44634;54.110;12.138;2022-07-23T04:23:18;3.17;;;2.10;;
16480;SDS011;44634;54.110;12.138;2022-07-23T04:25:47;3.40;;;2.10;;
16480;SDS011;44634;54.110;12.138;2022-07-23T04:28:15;4.07;;;2.30;;
16480;SDS011;44634;54.110;12.138;2022-07-23T04:30:43;3.90;;;2.33;;
16480;SDS011;44634;54.110;12.138;2022-07-23T04:33:12;3.93;;;2.07;;
16480;SDS011;44634;54.110;12.138;2022-07-23T04:35:40;2.50;;;2.40;;
16480;SDS011;44634;54.110;12.138;2022-07-23T04:38:08;2.50;;;2.20;;
16480;SDS011;44634;54.110;12.138;2022-07-23T04:40:36;2.83;;;2.27;;
16480;SDS011;44634;54.110;12.138;2022-07-23T04:43:04;2.60;;;2.23;;
16480;SDS011;44634;54.110;12.138;2022-07-23T04:45:32;4.53;;;2.37;;
16480;SDS011;44634;54.110;12.138;2022-07-23T04:48:00;4.43;;;2.00;;
16480;SDS011;44634;54.110;12.138;2022-07-23T04:50:29;4.43;;;2.20;;
16480;SDS011;44634;54.110;12.138;2022-07-23T04:52:57;1.70;;;1.70;;
16480;SDS011;44634;54.110;12.138;2022-07-23T04:55:25;5.23;;;2.77;;
16480;SDS011;44634;54.110;12.138;2022-07-23T04:57:53;2.67;;;2.47;;
16480;SDS011;44634;54.110;12.138;2022-07-23T05:00:21;2.70;;;2.10;;
16480;SDS011;44634;54.110;12.138;2022-07-23T05:02:49;4.47;;;2.40;;
16480;SDS011;44634;54.110;12.138;2022-07-23T05:05:17;4.00;;;2.60;;
16480;SDS011;44634;54.110;12.138;2022-07-23T05:07:46;2.30;;;2.10;;
16480;SDS011;44634;54.110;12.138;2022-07-23T05:10:14;2.83;;;2.40;;
16480;SDS011;44634;54.110;12.138;2022-07-23T05:12:42;3.80;;;2.40;;
16480;SDS011;44634;54.110;12.138;2022-07-23T05:15:10;2.43;;;2.20;;
16480;SDS011;44634;54.110;12.138;2022-07-23T05:17:38;5.10;;;2.20;;
16480;SDS011;44634;54.110;12.138;2022-07-23T05:20:06;3.37;;;2.23;;
16480;SDS011;44634;54.110;12.138;2022-07-23T05:22:34;2.20;;;2.00;;
16480;SDS011;44634;54.110;12.138;2022-07-23T05:25:03;2.87;;;2.20;;
16480;SDS011;44634;54.110;12.138;2022-07-23T05:27:33;2.07;;;1.80;;
16480;SDS011;44634;54.110;12.138;2022-07-23T05:30:01;3.17;;;2.07;;
16480;SDS011;44634;54.110;12.138;2022-07-23T05:32:30;4.27;;;2.63;;
16480;SDS011;44634;54.110;12.138;2022-07-23T05:34:59;3.17;;;2.00;;
16480;SDS011;44634;54.110;12.138;2022-07-23T05:37:26;1.80;;;1.70;;
16480;SDS011;44634;54.110;12.138;2022-07-23T05:39:54;2.97;;;2.00;;
16480;SDS011;44634;54.110;12.138;2022-07-23T05:42:23;2.10;;;2.00;;
16480;SDS011;44634;54.110;12.138;2022-07-23T05:44:51;1.90;;;1.60;;
16480;SDS011;44634;54.110;12.138;2022-07-23T05:47:19;1.77;;;1.70;;
16480;SDS011;44634;54.110;12.138;2022-07-23T05:49:47;3.37;;;1.93;;
16480;SDS011;44634;54.110;12.138;2022-07-23T05:52:15;4.77;;;2.10;;
16480;SDS011;44634;54.110;12.138;2022-07-23T05:54:42;2.77;;;2.13;;
16480;SDS011;44634;54.110;12.138;2022-07-23T05:57:10;2.53;;;1.90;;
16480;SDS011;44634;54.110;12.138;2022-07-23T05:59:40;2.40;;;1.70;;
16480;SDS011;44634;54.110;12.138;2022-07-23T06:02:07;2.73;;;1.80;;
16480;SDS011;44634;54.110;12.138;2022-07-23T06:04:35;2.50;;;1.93;;
16480;SDS011;44634;54.110;12.138;2022-07-23T06:07:03;1.90;;;1.70;;
16480;SDS011;44634;54.110;12.138;2022-07-23T06:09:31;5.00;;;1.87;;
16480;SDS011;44634;54.110;12.138;2022-07-23T06:11:59;3.57;;;2.07;;
16480;SDS011;44634;54.110;12.138;2022-07-23T06:14:27;2.73;;;1.87;;
16480;SDS011;44634;54.110;12.138;2022-07-23T06:16:56;3.30;;;1.80;;
16480;SDS011;44634;54.110;12.138;2022-07-23T06:19:24;2.13;;;1.60;;
16480;SDS011;44634;54.110;12.138;2022-07-23T06:21:52;3.23;;;1.80;;
16480;SDS011;44634;54.110;12.138;2022-07-23T06:24:20;3.77;;;1.80;;
16480;SDS011;44634;54.110;12.138;2022-07-23T06:26:48;1.67;;;1.57;;
16480;SDS011;44634;54.110;12.138;2022-07-23T06:29:16;1.93;;;1.50;;
16480;SDS011;44634;54.110;12.138;2022-07-23T06:31:44;3.27;;;1.70;;
16480;SDS011;44634;54.110;12.138;2022-07-23T06:34:14;1.97;;;1.40;;
16480;SDS011;44634;54.110;12.138;2022-07-23T06:36:42;3.37;;;1.47;;
16480;SDS011;44634;54.110;12.138;2022-07-23T06:39:11;1.97;;;1.60;;
16480;SDS011;44634;54.110;12.138;2022-07-23T06:41:39;3.23;;;1.77;;
16480;SDS011;44634;54.110;12.138;2022-07-23T06:44:07;3.23;;;1.67;;
16480;SDS011;44634;54.110;12.138;2022-07-23T06:46:36;5.33;;;1.90;;
16480;SDS011;44634;54.110;12.138;2022-07-23T06:49:04;1.93;;;1.73;;
16480;SDS011;44634;54.110;12.138;2022-07-23T06:51:34;1.63;;;1.53;;
16480;SDS011;44634;54.110;12.138;2022-07-23T06:54:03;1.50;;;1.50;;
16480;SDS011;44634;54.110;12.138;2022-07-23T06:56:31;1.90;;;1.40;;
16480;SDS011;44634;54.110;12.138;2022-07-23T06:58:59;2.33;;;1.67;;
16480;SDS011;44634;54.110;12.138;2022-07-23T07:01:27;1.37;;;1.37;;
16480;SDS011;44634;54.110;12.138;2022-07-23T07:03:55;2.13;;;1.53;;
16480;SDS011;44634;54.110;12.138;2022-07-23T07:06:23;3.80;;;1.10;;
16480;SDS011;44634;54.110;12.138;2022-07-23T07:08:53;1.57;;;1.20;;
16480;SDS011;44634;54.110;12.138;2022-07-23T07:11:22;2.30;;;1.60;;
16480;SDS011;44634;54.110;12.138;2022-07-23T07:13:49;3.37;;;1.30;;
16480;SDS011;44634;54.110;12.138;2022-07-23T07:16:17;1.17;;;1.17;;
16480;SDS011;44634;54.110;12.138;2022-07-23T07:18:45;1.83;;;1.07;;
16480;SDS011;44634;54.110;12.138;2022-07-23T07:21:13;2.00;;;1.20;;
16480;SDS011;44634;54.110;12.138;2022-07-23T07:23:41;2.77;;;1.30;;
16480;SDS011;44634;54.110;12.138;2022-07-23T07:26:10;2.07;;;1.43;;
16480;SDS011;44634;54.110;12.138;2022-07-23T07:28:38;1.30;;;1.20;;
16480;SDS011;44634;54.110;12.138;2022-07-23T07:31:06;1.20;;;1.10;;
16480;SDS011;44634;54.110;12.138;2022-07-23T07:33:34;2.93;;;1.40;;
16480;SDS011;44634;54.110;12.138;2022-07-23T07:36:02;1.23;;;1.23;;
16480;SDS011;44634;54.110;12.138;2022-07-23T07:38:30;2.80;;;1.57;;
16480;SDS011;44634;54.110;12.138;2022-07-23T07:40:58;2.70;;;1.60;;
16480;SDS011;44634;54.110;12.138;2022-07-23T07:43:27;2.10;;;1.43;;
16480;SDS011;44634;54.110;12.138;2022-07-23T07:45:55;2.30;;;1.70;;
16480;SDS011;44634;54.110;12.138;2022-07-23T07:48:23;3.47;;;1.60;;
16480;SDS011;44634;54.110;12.138;2022-07-23T07:50:51;1.90;;;1.50;;
16480;SDS011;44634;54.110;12.138;2022-07-23T07:53:19;1.63;;;1.43;;
16480;SDS011;44634;54.110;12.138;2022-07-23T07:55:47;2.40;;;1.40;;
16480;SDS011;44634;54.110;12.138;2022-07-23T07:58:17;1.10;;;1.10;;
16480;SDS011;44634;54.110;12.138;2022-07-23T08:00:46;1.13;;;1.00;;
16480;SDS011;44634;54.110;12.138;2022-07-23T08:03:15;3.70;;;1.40;;
16480;SDS011;44634;54.110;12.138;2022-07-23T08:05:44;1.57;;;1.30;;
16480;SDS011;44634;54.110;12.138;2022-07-23T08:08:12;4.03;;;1.50;;
16480;SDS011;44634;54.110;12.138;2022-07-23T08:10:41;1.20;;;1.20;;
16480;SDS011;44634;54.110;12.138;2022-07-23T08:13:11;1.30;;;1.20;;
16480;SDS011;44634;54.110;12.138;2022-07-23T08:15:41;1.30;;;1.20;;
16480;SDS011;44634;54.110;12.138;2022-07-23T08:18:10;1.33;;;1.20;;
16480;SDS011;44634;54.110;12.138;2022-07-23T08:20:38;2.20;;;1.20;;
16480;SDS011;44634;54.110;12.138;2022-07-23T08:23:07;2.30;;;1.43;;
16480;SDS011;44634;54.110;12.138;2022-07-23T08:25:36;1.23;;;1.13;;
16480;SDS011;44634;54.110;12.138;2022-07-23T08:28:05;1.00;;;1.00;;
16480;SDS011;44634;54.110;12.138;2022-07-23T08:30:35;1.60;;;1.00;;
16480;SDS011;44634;54.110;12.138;2022-07-23T08:33:05;1.00;;;1.00;;
16480;SDS011;44634;54.110;12.138;2022-07-23T08:35:56;1.03;;;1.03;;
16480;SDS011;44634;54.110;12.138;2022-07-23T08:38:25;1.37;;;1.00;;
16480;SDS011;44634;54.110;12.138;2022-07-23T08:40:55;1.57;;;0.90;;
16480;SDS011;44634;54.110;12.138;2022-07-23T08:43:25;1.23;;;1.13;;
16480;SDS011;44634;54.110;12.138;2022-07-23T08:45:54;1.53;;;1.43;;
16480;SDS011;44634;54.110;12.138;2022-07-23T08:48:27;1.00;;;1.00;;
16480;SDS011;44634;54.110;12.138;2022-07-23T08:50:57;0.83;;;0.80;;
16480;SDS011;44634;54.110;12.138;2022-07-23T08:53:27;0.93;;;0.93;;
16480;SDS011;44634;54.110;12.138;2022-07-23T08:55:56;2.10;;;1.00;;
16480;SDS011;44634;54.110;12.138;2022-07-23T08:58:25;1.00;;;1.00;;
16480;SDS011;44634;54.110;12.138;2022-07-23T09:00:54;1.00;;;0.90;;
16480;SDS011;44634;54.110;12.138;2022-07-23T09:03:24;1.57;;;1.00;;
16480;SDS011;44634;54.110;12.138;2022-07-23T09:05:53;1.57;;;1.20;;
16480;SDS011;44634;54.110;12.138;2022-07-23T09:08:25;1.03;;;1.03;;
16480;SDS011;44634;54.110;12.138;2022-07-23T09:10:54;1.67;;;1.03;;
16480;SDS011;44634;54.110;12.138;2022-07-23T09:13:27;1.50;;;0.80;;
16480;SDS011;44634;54.110;12.138;2022-07-23T09:15:58;1.30;;;1.00;;
16480;SDS011;44634;54.110;12.138;2022-07-23T09:18:28;1.20;;;0.90;;
16480;SDS011;44634;54.110;12.138;2022-07-23T09:23:54;1.00;;;0.90;;
16480;SDS011;44634;54.110;12.138;2022-07-23T09:26:25;1.20;;;1.10;;
16480;SDS011;44634;54.110;12.138;2022-07-23T09:28:59;2.33;;;1.50;;
16480;SDS011;44634;54.110;12.138;2022-07-23T09:31:31;1.00;;;1.00;;
16480;SDS011;44634;54.110;12.138;2022-07-23T09:34:07;1.23;;;0.97;;
16480;SDS011;44634;54.110;12.138;2022-07-23T09:36:36;1.23;;;1.10;;
16480;SDS011;44634;54.110;12.138;2022-07-23T09:39:06;1.03;;;1.00;;
16480;SDS011;44634;54.110;12.138;2022-07-23T09:41:35;1.80;;;1.40;;
16480;SDS011;44634;54.110;12.138;2022-07-23T09:44:10;2.33;;;1.20;;
16480;SDS011;44634;54.110;12.138;2022-07-23T09:46:39;2.57;;;1.27;;
16480;SDS011;44634;54.110;12.138;2022-07-23T09:49:10;1.30;;;1.03;;
16480;SDS011;44634;54.110;12.138;2022-07-23T09:51:47;1.20;;;1.10;;
16480;SDS011;44634;54.110;12.138;2022-07-23T09:54:29;2.43;;;1.03;;
16480;SDS011;44634;54.110;12.138;2022-07-23T09:57:00;3.07;;;1.20;;
16480;SDS011;44634;54.110;12.138;2022-07-23T09:59:31;1.47;;;1.00;;
16480;SDS011;44634;54.110;12.138;2022-07-23T10:02:02;1.53;;;1.00;;
16480;SDS011;44634;54.110;12.138;2022-07-23T10:04:33;1.00;;;1.00;;
16480;SDS011;44634;54.110;12.138;2022-07-23T10:07:04;1.10;;;1.00;;
16480;SDS011;44634;54.110;12.138;2022-07-23T10:09:36;2.13;;;1.10;;
16480;SDS011;44634;54.110;12.138;2022-07-23T10:12:05;1.47;;;1.00;;
16480;SDS011;44634;54.110;12.138;2022-07-23T10:14:42;1.27;;;1.20;;
16480;SDS011;44634;54.110;12.138;2022-07-23T10:17:11;0.90;;;0.90;;
16480;SDS011;44634;54.110;12.138;2022-07-23T10:19:39;3.07;;;1.23;;
16480;SDS011;44634;54.110;12.138;2022-07-23T10:22:09;1.20;;;1.10;;
16480;SDS011;44634;54.110;12.138;2022-07-23T10:24:44;1.30;;;0.93;;
16480;SDS011;44634;54.110;12.138;2022-07-23T10:27:25;1.63;;;1.03;;
16480;SDS011;44634;54.110;12.138;2022-07-23T10:30:05;1.87;;;1.20;;
16480;SDS011;44634;54.110;12.138;2022-07-23T10:32:43;1.00;;;1.00;;
16480;SDS011;44634;54.110;12.138;2022-07-23T10:35:19;1.17;;;1.03;;
16480;SDS011;44634;54.110;12.138;2022-07-23T10:38:00;0.80;;;0.80;;
16480;SDS011;44634;54.110;12.138;2022-07-23T10:40:36;1.20;;;1.10;;
16480;SDS011;44634;54.110;12.138;2022-07-23T10:43:04;3.03;;;1.00;;
16480;SDS011;44634;54.110;12.138;2022-07-23T10:45:47;1.57;;;1.00;;
16480;SDS011;44634;54.110;12.138;2022-07-23T10:48:16;3.13;;;1.30;;
16480;SDS011;44634;54.110;12.138;2022-07-23T10:53:58;1.90;;;1.27;;
16480;SDS011;44634;54.110;12.138;2022-07-23T10:59:32;1.57;;;1.30;;
16480;SDS011;44634;54.110;12.138;2022-07-23T11:02:38;1.33;;;1.23;;
16480;SDS011;44634;54.110;12.138;2022-07-23T11:05:07;1.70;;;1.27;;
16480;SDS011;44634;54.110;12.138;2022-07-23T11:07:37;2.73;;;1.33;;
16480;SDS011;44634;54.110;12.138;2022-07-23T11:10:52;2.43;;;1.30;;
16480;SDS011;44634;54.110;12.138;2022-07-23T11:13:30;2.47;;;1.33;;
16480;SDS011;44634;54.110;12.138;2022-07-23T11:16:13;1.07;;;0.93;;
16480;SDS011;44634;54.110;12.138;2022-07-23T11:21:45;1.20;;;1.10;;
16480;SDS011;44634;54.110;12.138;2022-07-23T11:24:15;2.73;;;1.17;;
16480;SDS011;44634;54.110;12.138;2022-07-23T11:26:50;1.27;;;1.17;;
16480;SDS011;44634;54.110;12.138;2022-07-23T11:29:46;0.93;;;0.80;;
16480;SDS011;44634;54.110;12.138;2022-07-23T11:32:18;1.40;;;1.13;;
16480;SDS011;44634;54.110;12.138;2022-07-23T11:34:59;1.20;;;1.00;;
16480;SDS011;44634;54.110;12.138;2022-07-23T11:37:32;2.53;;;0.90;;
16480;SDS011;44634;54.110;12.138;2022-07-23T11:40:02;1.07;;;1.07;;
16480;SDS011;44634;54.110;12.138;2022-07-23T11:42:33;1.90;;;1.17;;
16480;SDS011;44634;54.110;12.138;2022-07-23T11:45:05;2.30;;;1.60;;
16480;SDS011;44634;54.110;12.138;2022-07-23T11:47:34;1.73;;;1.20;;
16480;SDS011;44634;54.110;12.138;2022-07-23T11:50:03;2.40;;;1.27;;
16480;SDS011;44634;54.110;12.138;2022-07-23T11:52:33;1.03;;;1.00;;
16480;SDS011;44634;54.110;12.138;2022-07-23T11:55:03;1.80;;;1.00;;
16480;SDS011;44634;54.110;12.138;2022-07-23T11:57:33;1.27;;;1.27;;
16480;SDS011;44634;54.110;12.138;2022-07-23T12:00:03;1.00;;;1.00;;
16480;SDS011;44634;54.110;12.138;2022-07-23T12:02:36;2.00;;;1.33;;
16480;SDS011;44634;54.110;12.138;2022-07-23T12:05:04;2.13;;;1.20;;
16480;SDS011;44634;54.110;12.138;2022-07-23T12:07:33;1.43;;;1.07;;
16480;SDS011;44634;54.110;12.138;2022-07-23T12:10:04;0.90;;;0.90;;
16480;SDS011;44634;54.110;12.138;2022-07-23T12:12:37;1.10;;;1.10;;
16480;SDS011;44634;54.110;12.138;2022-07-23T12:15:07;1.10;;;1.10;;
16480;SDS011;44634;54.110;12.138;2022-07-23T12:17:37;1.50;;;1.03;;
16480;SDS011;44634;54.110;12.138;2022-07-23T12:20:07;1.57;;;1.20;;
16480;SDS011;44634;54.110;12.138;2022-07-23T12:22:38;1.00;;;1.00;;
16480;SDS011;44634;54.110;12.138;2022-07-23T12:25:08;2.13;;;1.30;;
16480;SDS011;44634;54.110;12.138;2022-07-23T12:27:38;3.37;;;1.37;;
16480;SDS011;44634;54.110;12.138;2022-07-23T12:30:23;1.50;;;1.33;;
16480;SDS011;44634;54.110;12.138;2022-07-23T12:32:59;2.00;;;0.90;;
16480;SDS011;44634;54.110;12.138;2022-07-23T12:35:31;2.33;;;1.40;;
16480;SDS011;44634;54.110;12.138;2022-07-23T12:38:02;1.07;;;1.07;;
16480;SDS011;44634;54.110;12.138;2022-07-23T12:40:32;2.00;;;1.23;;
16480;SDS011;44634;54.110;12.138;2022-07-23T12:43:02;1.27;;;1.27;;
16480;SDS011;44634;54.110;12.138;2022-07-23T12:45:46;1.23;;;1.10;;
16480;SDS011;44634;54.110;12.138;2022-07-23T12:48:16;2.53;;;1.20;;
16480;SDS011;44634;54.110;12.138;2022-07-23T12:50:54;1.57;;;1.23;;
16480;SDS011;44634;54.110;12.138;2022-07-23T12:53:24;4.73;;;1.63;;
16480;SDS011;44634;54.110;12.138;2022-07-23T12:55:57;1.60;;;1.47;;
16480;SDS011;44634;54.110;12.138;2022-07-23T12:58:44;2.43;;;2.10;;
16480;SDS011;44634;54.110;12.138;2022-07-23T13:01:25;1.90;;;1.73;;
16480;SDS011;44634;54.110;12.138;2022-07-23T13:03:56;1.80;;;1.70;;
16480;SDS011;44634;54.110;12.138;2022-07-23T13:06:40;3.70;;;1.30;;
16480;SDS011;44634;54.110;12.138;2022-07-23T13:09:10;1.67;;;1.30;;
16480;SDS011;44634;54.110;12.138;2022-07-23T13:11:41;1.63;;;1.40;;
16480;SDS011;44634;54.110;12.138;2022-07-23T13:14:10;2.60;;;1.23;;
16480;SDS011;44634;54.110;12.138;2022-07-23T13:16:40;1.50;;;1.40;;
16480;SDS011;44634;54.110;12.138;2022-07-23T13:19:09;3.77;;;1.40;;
16480;SDS011;44634;54.110;12.138;2022-07-23T13:21:38;5.30;;;1.80;;
16480;SDS011;44634;54.110;12.138;2022-07-23T13:24:06;2.83;;;1.50;;
16480;SDS011;44634;54.110;12.138;2022-07-23T13:26:35;2.73;;;1.60;;
16480;SDS011;44634;54.110;12.138;2022-07-23T13:29:03;2.17;;;1.30;;
16480;SDS011;44634;54.110;12.138;2022-07-23T13:31:35;1.23;;;1.20;;
16480;SDS011;44634;54.110;12.138;2022-07-23T13:34:06;4.40;;;1.43;;
16480;SDS011;44634;54.110;12.138;2022-07-23T13:36:34;1.33;;;1.23;;
16480;SDS011;44634;54.110;12.138;2022-07-23T13:39:03;2.03;;;1.10;;
16480;SDS011;44634;54.110;12.138;2022-07-23T13:41:35;1.77;;;0.90;;
16480;SDS011;44634;54.110;12.138;2022-07-23T13:44:03;1.43;;;1.10;;
16480;SDS011;44634;54.110;12.138;2022-07-23T13:46:32;1.70;;;1.60;;
16480;SDS011;44634;54.110;12.138;2022-07-23T13:49:00;1.20;;;1.10;;
16480;SDS011;44634;54.110;12.138;2022-07-23T13:51:33;3.17;;;1.20;;
16480;SDS011;44634;54.110;12.138;2022-07-23T13:54:02;1.90;;;1.10;;
16480;SDS011;44634;54.110;12.138;2022-07-23T13:56:34;2.00;;;1.00;;
16480;SDS011;44634;54.110;12.138;2022-07-23T13:59:02;1.07;;;1.00;;
16480;SDS011;44634;54.110;12.138;2022-07-23T14:01:32;1.40;;;1.10;;
16480;SDS011;44634;54.110;12.138;2022-07-23T14:04:15;1.70;;;1.10;;
16480;SDS011;44634;54.110;12.138;2022-07-23T14:06:45;1.77;;;1.13;;
16480;SDS011;44634;54.110;12.138;2022-07-23T14:09:18;1.93;;;1.30;;
16480;SDS011;44634;54.110;12.138;2022-07-23T14:11:46;3.50;;;1.20;;
16480;SDS011;44634;54.110;12.138;2022-07-23T14:14:14;1.00;;;1.00;;
16480;SDS011;44634;54.110;12.138;2022-07-23T14:16:42;1.30;;;1.20;;
16480;SDS011;44634;54.110;12.138;2022-07-23T14:19:10;2.13;;;1.50;;
16480;SDS011;44634;54.110;12.138;2022-07-23T14:21:38;3.53;;;1.43;;
16480;SDS011;44634;54.110;12.138;2022-07-23T14:24:08;2.03;;;1.20;;
16480;SDS011;44634;54.110;12.138;2022-07-23T14:26:36;2.90;;;1.40;;
16480;SDS011;44634;54.110;12.138;2022-07-23T14:29:03;1.50;;;1.37;;
16480;SDS011;44634;54.110;12.138;2022-07-23T14:31:33;1.47;;;1.37;;
16480;SDS011;44634;54.110;12.138;2022-07-23T14:34:02;1.43;;;0.93;;
16480;SDS011;44634;54.110;12.138;2022-07-23T14:36:33;2.20;;;1.20;;
16480;SDS011;44634;54.110;12.138;2022-07-23T14:39:01;3.30;;;1.30;;
16480;SDS011;44634;54.110;12.138;2022-07-23T14:41:30;3.37;;;1.37;;
16480;SDS011;44634;54.110;12.138;2022-07-23T14:43:58;1.93;;;1.20;;
16480;SDS011;44634;54.110;12.138;2022-07-23T14:46:26;2.33;;;1.50;;
16480;SDS011;44634;54.110;12.138;2022-07-23T14:48:54;2.60;;;1.20;;
16480;SDS011;44634;54.110;12.138;2022-07-23T14:51:23;1.37;;;1.30;;
16480;SDS011;44634;54.110;12.138;2022-07-23T14:53:52;3.27;;;1.10;;
16480;SDS011;44634;54.110;12.138;2022-07-23T14:56:22;1.87;;;1.40;;
16480;SDS011;44634;54.110;12.138;2022-07-23T14:58:51;2.77;;;1.70;;
16480;SDS011;44634;54.110;12.138;2022-07-23T15:01:19;2.07;;;1.23;;